sensor_id;sensor_type;location;lat;lon;timestamp;P1;durP1;ratioP1;P2;durP2;ratioP2
17151;SDS011;8691;50.828;4.700;2022-09-17T00:02:16;7.85;;;2.00;;
17151;SDS011;8691;50.828;4.700;2022-09-17T00:04:46;4.40;;;1.40;;
17151;SDS011;8691;50.828;4.700;2022-09-17T00:07:11;6.65;;;1.83;;
17151;SDS011;8691;50.828;4.700;2022-09-17T00:09:38;5.83;;;1.73;;
17151;SDS011;8691;50.828;4.700;2022-09-17T00:12:04;8.30;;;1.90;;
17151;SDS011;8691;50.828;4.700;2022-09-17T00:14:31;7.30;;;1.90;;
17151;SDS011;8691;50.828;4.700;2022-09-17T00:16:58;5.40;;;1.70;;
17151;SDS011;8691;50.828;4.700;2022-09-17T00:19:25;7.93;;;1.73;;
17151;SDS011;8691;50.828;4.700;2022-09-17T00:21:52;6.47;;;1.65;;
17151;SDS011;8691;50.828;4.700;2022-09-17T00:24:19;6.30;;;1.55;;
17151;SDS011;8691;50.828;4.700;2022-09-17T00:26:46;5.93;;;1.80;;
17151;SDS011;8691;50.828;4.700;2022-09-17T00:29:12;5.50;;;1.75;;
17151;SDS011;8691;50.828;4.700;2022-09-17T00:31:39;6.03;;;1.90;;
17151;SDS011;8691;50.828;4.700;2022-09-17T00:34:06;5.20;;;1.73;;
17151;SDS011;8691;50.828;4.700;2022-09-17T00:36:36;5.07;;;1.70;;
17151;SDS011;8691;50.828;4.700;2022-09-17T00:39:03;6.70;;;1.90;;
17151;SDS011;8691;50.828;4.700;2022-09-17T00:41:30;5.88;;;1.73;;
17151;SDS011;8691;50.828;4.700;2022-09-17T00:43:59;4.50;;;1.50;;
17151;SDS011;8691;50.828;4.700;2022-09-17T00:48:59;6.90;;;1.70;;
17151;SDS011;8691;50.828;4.700;2022-09-17T00:51:26;4.65;;;1.60;;
17151;SDS011;8691;50.828;4.700;2022-09-17T00:53:51;7.00;;;1.70;;
17151;SDS011;8691;50.828;4.700;2022-09-17T00:56:20;6.28;;;1.90;;
17151;SDS011;8691;50.828;4.700;2022-09-17T00:58:49;5.95;;;1.73;;
17151;SDS011;8691;50.828;4.700;2022-09-17T01:01:15;5.77;;;1.67;;
17151;SDS011;8691;50.828;4.700;2022-09-17T01:03:42;6.35;;;1.60;;
17151;SDS011;8691;50.828;4.700;2022-09-17T01:22:31;6.40;;;1.83;;
17151;SDS011;8691;50.828;4.700;2022-09-17T01:32:28;6.77;;;1.80;;
17151;SDS011;8691;50.828;4.700;2022-09-17T01:35:16;7.95;;;1.90;;
17151;SDS011;8691;50.828;4.700;2022-09-17T01:40:35;6.13;;;1.60;;
17151;SDS011;8691;50.828;4.700;2022-09-17T01:43:19;5.57;;;1.53;;
17151;SDS011;8691;50.828;4.700;2022-09-17T01:45:56;6.62;;;1.70;;
17151;SDS011;8691;50.828;4.700;2022-09-17T01:48:16;7.27;;;1.80;;
17151;SDS011;8691;50.828;4.700;2022-09-17T01:50:44;8.75;;;1.80;;
17151;SDS011;8691;50.828;4.700;2022-09-17T01:53:09;6.77;;;1.73;;
17151;SDS011;8691;50.828;4.700;2022-09-17T01:55:36;6.32;;;1.50;;
17151;SDS011;8691;50.828;4.700;2022-09-17T02:00:32;4.95;;;1.48;;
17151;SDS011;8691;50.828;4.700;2022-09-17T02:06:34;6.90;;;1.60;;
17151;SDS011;8691;50.828;4.700;2022-09-17T02:08:27;6.90;;;1.50;;
17151;SDS011;8691;50.828;4.700;2022-09-17T02:10:56;7.70;;;1.80;;
17151;SDS011;8691;50.828;4.700;2022-09-17T02:13:30;7.23;;;1.50;;
17151;SDS011;8691;50.828;4.700;2022-09-17T02:16:16;6.90;;;1.95;;
17151;SDS011;8691;50.828;4.700;2022-09-17T02:21:12;7.20;;;1.70;;
17151;SDS011;8691;50.828;4.700;2022-09-17T02:23:40;4.83;;;1.33;;
17151;SDS011;8691;50.828;4.700;2022-09-17T02:26:09;5.50;;;1.85;;
17151;SDS011;8691;50.828;4.700;2022-09-17T02:31:14;7.43;;;2.00;;
17151;SDS011;8691;50.828;4.700;2022-09-17T02:33:41;6.63;;;2.00;;
17151;SDS011;8691;50.828;4.700;2022-09-17T02:36:07;5.17;;;1.73;;
17151;SDS011;8691;50.828;4.700;2022-09-17T02:38:34;7.03;;;2.30;;
17151;SDS011;8691;50.828;4.700;2022-09-17T02:41:08;6.88;;;2.05;;
17151;SDS011;8691;50.828;4.700;2022-09-17T02:43:41;7.40;;;1.90;;
17151;SDS011;8691;50.828;4.700;2022-09-17T02:51:37;6.97;;;2.00;;
17151;SDS011;8691;50.828;4.700;2022-09-17T02:54:28;7.70;;;2.00;;
17151;SDS011;8691;50.828;4.700;2022-09-17T02:57:14;8.53;;;2.00;;
17151;SDS011;8691;50.828;4.700;2022-09-17T02:59:55;8.12;;;2.15;;
17151;SDS011;8691;50.828;4.700;2022-09-17T03:02:31;6.80;;;2.05;;
17151;SDS011;8691;50.828;4.700;2022-09-17T03:04:53;10.35;;;2.17;;
17151;SDS011;8691;50.828;4.700;2022-09-17T03:07:20;6.13;;;1.73;;
17151;SDS011;8691;50.828;4.700;2022-09-17T03:09:47;8.82;;;2.35;;
17151;SDS011;8691;50.828;4.700;2022-09-17T03:12:14;7.05;;;2.15;;
17151;SDS011;8691;50.828;4.700;2022-09-17T03:14:41;7.40;;;1.80;;
17151;SDS011;8691;50.828;4.700;2022-09-17T03:17:08;6.83;;;2.13;;
17151;SDS011;8691;50.828;4.700;2022-09-17T03:19:35;6.93;;;2.00;;
17151;SDS011;8691;50.828;4.700;2022-09-17T03:22:01;9.70;;;2.35;;
17151;SDS011;8691;50.828;4.700;2022-09-17T03:24:28;7.03;;;1.95;;
17151;SDS011;8691;50.828;4.700;2022-09-17T03:26:56;9.02;;;1.98;;
17151;SDS011;8691;50.828;4.700;2022-09-17T03:29:23;7.37;;;2.00;;
17151;SDS011;8691;50.828;4.700;2022-09-17T03:31:50;7.20;;;2.08;;
17151;SDS011;8691;50.828;4.700;2022-09-17T03:34:17;5.23;;;1.90;;
17151;SDS011;8691;50.828;4.700;2022-09-17T03:36:44;7.45;;;1.95;;
17151;SDS011;8691;50.828;4.700;2022-09-17T03:39:11;9.40;;;2.30;;
17151;SDS011;8691;50.828;4.700;2022-09-17T03:41:37;8.23;;;2.10;;
17151;SDS011;8691;50.828;4.700;2022-09-17T03:44:04;6.70;;;1.90;;
17151;SDS011;8691;50.828;4.700;2022-09-17T03:46:32;7.10;;;1.90;;
17151;SDS011;8691;50.828;4.700;2022-09-17T03:48:59;6.17;;;1.70;;
17151;SDS011;8691;50.828;4.700;2022-09-17T03:51:26;6.60;;;1.87;;
17151;SDS011;8691;50.828;4.700;2022-09-17T03:53:53;8.00;;;2.17;;
17151;SDS011;8691;50.828;4.700;2022-09-17T03:56:19;7.50;;;2.10;;
17151;SDS011;8691;50.828;4.700;2022-09-17T03:58:46;8.00;;;2.10;;
17151;SDS011;8691;50.828;4.700;2022-09-17T04:01:13;13.37;;;1.80;;
17151;SDS011;8691;50.828;4.700;2022-09-17T04:03:40;6.68;;;2.08;;
17151;SDS011;8691;50.828;4.700;2022-09-17T04:06:07;9.20;;;2.40;;
17151;SDS011;8691;50.828;4.700;2022-09-17T04:08:34;10.62;;;2.30;;
17151;SDS011;8691;50.828;4.700;2022-09-17T04:11:00;7.17;;;2.30;;
17151;SDS011;8691;50.828;4.700;2022-09-17T04:13:28;9.43;;;1.90;;
17151;SDS011;8691;50.828;4.700;2022-09-17T04:15:56;8.65;;;2.55;;
17151;SDS011;8691;50.828;4.700;2022-09-17T04:18:23;8.60;;;2.05;;
17151;SDS011;8691;50.828;4.700;2022-09-17T04:20:51;8.10;;;2.20;;
17151;SDS011;8691;50.828;4.700;2022-09-17T04:23:18;7.32;;;2.00;;
17151;SDS011;8691;50.828;4.700;2022-09-17T04:25:45;7.20;;;2.00;;
17151;SDS011;8691;50.828;4.700;2022-09-17T04:28:11;7.43;;;1.77;;
17151;SDS011;8691;50.828;4.700;2022-09-17T04:30:39;8.55;;;2.40;;
17151;SDS011;8691;50.828;4.700;2022-09-17T04:33:07;9.97;;;1.97;;
17151;SDS011;8691;50.828;4.700;2022-09-17T04:35:34;8.40;;;2.37;;
17151;SDS011;8691;50.828;4.700;2022-09-17T04:38:01;8.07;;;2.45;;
17151;SDS011;8691;50.828;4.700;2022-09-17T04:40:28;9.40;;;2.28;;
17151;SDS011;8691;50.828;4.700;2022-09-17T04:42:56;10.37;;;2.20;;
17151;SDS011;8691;50.828;4.700;2022-09-17T04:45:22;9.53;;;2.27;;
17151;SDS011;8691;50.828;4.700;2022-09-17T04:47:50;7.80;;;2.00;;
17151;SDS011;8691;50.828;4.700;2022-09-17T04:50:18;12.12;;;2.55;;
17151;SDS011;8691;50.828;4.700;2022-09-17T04:52:45;12.13;;;2.40;;
17151;SDS011;8691;50.828;4.700;2022-09-17T04:55:12;8.70;;;2.00;;
17151;SDS011;8691;50.828;4.700;2022-09-17T04:57:44;9.93;;;1.90;;
17151;SDS011;8691;50.828;4.700;2022-09-17T05:00:05;12.93;;;2.10;;
17151;SDS011;8691;50.828;4.700;2022-09-17T05:02:32;8.87;;;2.00;;
17151;SDS011;8691;50.828;4.700;2022-09-17T05:04:59;11.60;;;2.30;;
17151;SDS011;8691;50.828;4.700;2022-09-17T05:07:26;12.00;;;2.43;;
17151;SDS011;8691;50.828;4.700;2022-09-17T05:09:53;10.97;;;2.20;;
17151;SDS011;8691;50.828;4.700;2022-09-17T05:12:20;7.53;;;1.80;;
17151;SDS011;8691;50.828;4.700;2022-09-17T05:14:47;11.65;;;2.38;;
17151;SDS011;8691;50.828;4.700;2022-09-17T05:17:15;7.60;;;1.53;;
17151;SDS011;8691;50.828;4.700;2022-09-17T05:19:42;9.13;;;2.17;;
17151;SDS011;8691;50.828;4.700;2022-09-17T05:22:10;8.57;;;2.60;;
17151;SDS011;8691;50.828;4.700;2022-09-17T05:24:37;9.98;;;2.30;;
17151;SDS011;8691;50.828;4.700;2022-09-17T05:27:05;8.57;;;2.10;;
17151;SDS011;8691;50.828;4.700;2022-09-17T05:29:31;8.57;;;2.43;;
17151;SDS011;8691;50.828;4.700;2022-09-17T05:31:58;8.83;;;2.00;;
17151;SDS011;8691;50.828;4.700;2022-09-17T05:34:25;7.20;;;2.00;;
17151;SDS011;8691;50.828;4.700;2022-09-17T05:36:51;9.60;;;1.90;;
17151;SDS011;8691;50.828;4.700;2022-09-17T05:39:18;11.12;;;2.25;;
17151;SDS011;8691;50.828;4.700;2022-09-17T05:41:45;10.25;;;2.45;;
17151;SDS011;8691;50.828;4.700;2022-09-17T05:44:12;7.97;;;2.20;;
17151;SDS011;8691;50.828;4.700;2022-09-17T05:46:39;8.07;;;2.22;;
17151;SDS011;8691;50.828;4.700;2022-09-17T05:49:06;9.05;;;2.00;;
17151;SDS011;8691;50.828;4.700;2022-09-17T05:51:33;8.37;;;2.30;;
17151;SDS011;8691;50.828;4.700;2022-09-17T05:54:00;9.53;;;2.17;;
17151;SDS011;8691;50.828;4.700;2022-09-17T05:56:27;10.62;;;2.38;;
17151;SDS011;8691;50.828;4.700;2022-09-17T05:58:54;11.25;;;2.20;;
17151;SDS011;8691;50.828;4.700;2022-09-17T06:01:21;11.70;;;2.80;;
17151;SDS011;8691;50.828;4.700;2022-09-17T06:03:48;9.70;;;2.30;;
17151;SDS011;8691;50.828;4.700;2022-09-17T06:06:15;10.82;;;2.58;;
17151;SDS011;8691;50.828;4.700;2022-09-17T06:08:42;10.68;;;2.60;;
17151;SDS011;8691;50.828;4.700;2022-09-17T06:11:09;8.25;;;2.28;;
17151;SDS011;8691;50.828;4.700;2022-09-17T06:13:36;10.25;;;2.83;;
17151;SDS011;8691;50.828;4.700;2022-09-17T06:16:03;11.05;;;2.58;;
17151;SDS011;8691;50.828;4.700;2022-09-17T06:18:30;9.23;;;2.43;;
17151;SDS011;8691;50.828;4.700;2022-09-17T06:20:57;8.63;;;2.30;;
17151;SDS011;8691;50.828;4.700;2022-09-17T06:23:24;9.82;;;2.33;;
17151;SDS011;8691;50.828;4.700;2022-09-17T06:25:58;9.60;;;1.97;;
17151;SDS011;8691;50.828;4.700;2022-09-17T06:28:25;7.97;;;2.03;;
17151;SDS011;8691;50.828;4.700;2022-09-17T06:30:52;8.67;;;2.10;;
17151;SDS011;8691;50.828;4.700;2022-09-17T06:33:20;7.55;;;2.20;;
17151;SDS011;8691;50.828;4.700;2022-09-17T06:35:47;9.55;;;2.40;;
17151;SDS011;8691;50.828;4.700;2022-09-17T06:38:13;8.30;;;2.03;;
17151;SDS011;8691;50.828;4.700;2022-09-17T06:40:40;6.30;;;2.38;;
17151;SDS011;8691;50.828;4.700;2022-09-17T06:43:07;10.47;;;2.53;;
17151;SDS011;8691;50.828;4.700;2022-09-17T06:45:34;6.80;;;2.63;;
17151;SDS011;8691;50.828;4.700;2022-09-17T06:48:04;9.77;;;2.95;;
17151;SDS011;8691;50.828;4.700;2022-09-17T06:50:31;11.62;;;2.78;;
17151;SDS011;8691;50.828;4.700;2022-09-17T06:52:58;10.70;;;3.00;;
17151;SDS011;8691;50.828;4.700;2022-09-17T06:55:25;12.65;;;8.50;;
17151;SDS011;8691;50.828;4.700;2022-09-17T06:57:51;8.65;;;2.80;;
17151;SDS011;8691;50.828;4.700;2022-09-17T07:00:18;7.10;;;2.37;;
17151;SDS011;8691;50.828;4.700;2022-09-17T07:02:58;6.97;;;2.05;;
17151;SDS011;8691;50.828;4.700;2022-09-17T07:05:25;6.10;;;2.50;;
17151;SDS011;8691;50.828;4.700;2022-09-17T07:07:51;8.35;;;3.90;;
17151;SDS011;8691;50.828;4.700;2022-09-17T07:10:19;7.30;;;2.93;;
17151;SDS011;8691;50.828;4.700;2022-09-17T07:12:45;6.47;;;2.67;;
17151;SDS011;8691;50.828;4.700;2022-09-17T07:15:12;7.93;;;2.50;;
17151;SDS011;8691;50.828;4.700;2022-09-17T07:17:40;8.07;;;2.28;;
17151;SDS011;8691;50.828;4.700;2022-09-17T07:20:07;7.85;;;2.03;;
17151;SDS011;8691;50.828;4.700;2022-09-17T07:22:34;7.32;;;1.92;;
17151;SDS011;8691;50.828;4.700;2022-09-17T07:25:01;5.90;;;1.93;;
17151;SDS011;8691;50.828;4.700;2022-09-17T07:27:29;6.38;;;2.00;;
17151;SDS011;8691;50.828;4.700;2022-09-17T07:29:56;5.93;;;2.00;;
17151;SDS011;8691;50.828;4.700;2022-09-17T07:32:23;6.53;;;1.92;;
17151;SDS011;8691;50.828;4.700;2022-09-17T07:34:49;5.17;;;1.70;;
17151;SDS011;8691;50.828;4.700;2022-09-17T07:37:16;6.03;;;2.33;;
17151;SDS011;8691;50.828;4.700;2022-09-17T07:39:43;7.70;;;2.50;;
17151;SDS011;8691;50.828;4.700;2022-09-17T07:42:10;5.78;;;2.10;;
17151;SDS011;8691;50.828;4.700;2022-09-17T07:44:37;6.57;;;1.80;;
17151;SDS011;8691;50.828;4.700;2022-09-17T07:47:03;8.05;;;1.95;;
17151;SDS011;8691;50.828;4.700;2022-09-17T07:49:30;7.00;;;2.08;;
17151;SDS011;8691;50.828;4.700;2022-09-17T07:51:57;6.10;;;1.50;;
17151;SDS011;8691;50.828;4.700;2022-09-17T07:54:24;7.97;;;2.28;;
17151;SDS011;8691;50.828;4.700;2022-09-17T07:56:50;7.22;;;2.30;;
17151;SDS011;8691;50.828;4.700;2022-09-17T07:59:17;10.43;;;2.78;;
17151;SDS011;8691;50.828;4.700;2022-09-17T08:01:44;7.05;;;2.00;;
17151;SDS011;8691;50.828;4.700;2022-09-17T08:04:11;9.43;;;2.38;;
17151;SDS011;8691;50.828;4.700;2022-09-17T08:06:37;4.30;;;1.63;;
17151;SDS011;8691;50.828;4.700;2022-09-17T08:09:04;7.87;;;2.00;;
17151;SDS011;8691;50.828;4.700;2022-09-17T08:11:31;7.57;;;1.95;;
17151;SDS011;8691;50.828;4.700;2022-09-17T08:13:58;7.60;;;2.12;;
17151;SDS011;8691;50.828;4.700;2022-09-17T08:16:25;7.18;;;2.00;;
17151;SDS011;8691;50.828;4.700;2022-09-17T08:18:55;6.00;;;1.70;;
17151;SDS011;8691;50.828;4.700;2022-09-17T08:21:21;7.03;;;2.10;;
17151;SDS011;8691;50.828;4.700;2022-09-17T08:23:48;7.40;;;2.25;;
17151;SDS011;8691;50.828;4.700;2022-09-17T08:26:21;6.77;;;2.27;;
17151;SDS011;8691;50.828;4.700;2022-09-17T08:28:46;6.65;;;3.28;;
17151;SDS011;8691;50.828;4.700;2022-09-17T08:31:15;8.48;;;3.45;;
17151;SDS011;8691;50.828;4.700;2022-09-17T08:33:41;6.53;;;3.57;;
17151;SDS011;8691;50.828;4.700;2022-09-17T08:36:09;6.65;;;2.20;;
17151;SDS011;8691;50.828;4.700;2022-09-17T08:38:35;6.80;;;1.95;;
17151;SDS011;8691;50.828;4.700;2022-09-17T08:43:48;6.57;;;2.10;;
17151;SDS011;8691;50.828;4.700;2022-09-17T08:46:33;5.78;;;1.60;;
17151;SDS011;8691;50.828;4.700;2022-09-17T09:05:14;4.30;;;1.63;;
17151;SDS011;8691;50.828;4.700;2022-09-17T09:07:44;3.75;;;1.48;;
17151;SDS011;8691;50.828;4.700;2022-09-17T09:10:25;3.80;;;1.40;;
17151;SDS011;8691;50.828;4.700;2022-09-17T09:12:57;4.72;;;1.60;;
17151;SDS011;8691;50.828;4.700;2022-09-17T09:15:37;5.53;;;1.60;;
17151;SDS011;8691;50.828;4.700;2022-09-17T09:18:15;3.20;;;1.40;;
17151;SDS011;8691;50.828;4.700;2022-09-17T09:20:42;5.23;;;1.60;;
17151;SDS011;8691;50.828;4.700;2022-09-17T09:23:09;6.00;;;1.60;;
17151;SDS011;8691;50.828;4.700;2022-09-17T09:25:36;5.70;;;1.80;;
17151;SDS011;8691;50.828;4.700;2022-09-17T09:28:05;5.18;;;1.70;;
17151;SDS011;8691;50.828;4.700;2022-09-17T09:30:30;4.50;;;1.40;;
17151;SDS011;8691;50.828;4.700;2022-09-17T09:32:59;2.73;;;1.37;;
17151;SDS011;8691;50.828;4.700;2022-09-17T09:35:26;9.07;;;1.85;;
17151;SDS011;8691;50.828;4.700;2022-09-17T09:37:56;5.18;;;1.80;;
17151;SDS011;8691;50.828;4.700;2022-09-17T09:40:25;4.90;;;1.60;;
17151;SDS011;8691;50.828;4.700;2022-09-17T09:42:49;5.40;;;1.50;;
17151;SDS011;8691;50.828;4.700;2022-09-17T09:45:18;6.60;;;1.40;;
17151;SDS011;8691;50.828;4.700;2022-09-17T09:47:52;5.57;;;1.50;;
17151;SDS011;8691;50.828;4.700;2022-09-17T09:50:34;4.23;;;1.30;;
17151;SDS011;8691;50.828;4.700;2022-09-17T09:59:05;3.40;;;1.03;;
17151;SDS011;8691;50.828;4.700;2022-09-17T10:01:29;4.30;;;1.10;;
17151;SDS011;8691;50.828;4.700;2022-09-17T10:03:55;3.70;;;1.17;;
17151;SDS011;8691;50.828;4.700;2022-09-17T10:06:23;3.88;;;1.48;;
17151;SDS011;8691;50.828;4.700;2022-09-17T10:11:23;3.55;;;1.20;;
17151;SDS011;8691;50.828;4.700;2022-09-17T10:13:49;4.53;;;1.50;;
17151;SDS011;8691;50.828;4.700;2022-09-17T10:16:20;4.90;;;1.30;;
17151;SDS011;8691;50.828;4.700;2022-09-17T10:18:46;3.53;;;1.40;;
17151;SDS011;8691;50.828;4.700;2022-09-17T10:21:22;4.10;;;1.00;;
17151;SDS011;8691;50.828;4.700;2022-09-17T10:23:45;4.53;;;1.38;;
17151;SDS011;8691;50.828;4.700;2022-09-17T10:26:19;4.35;;;1.08;;
17151;SDS011;8691;50.828;4.700;2022-09-17T10:28:46;3.85;;;1.10;;
17151;SDS011;8691;50.828;4.700;2022-09-17T10:31:12;5.30;;;1.30;;
17151;SDS011;8691;50.828;4.700;2022-09-17T10:33:49;4.43;;;1.10;;
17151;SDS011;8691;50.828;4.700;2022-09-17T10:36:08;2.63;;;0.90;;
17151;SDS011;8691;50.828;4.700;2022-09-17T10:38:43;5.18;;;1.40;;
17151;SDS011;8691;50.828;4.700;2022-09-17T10:41:19;3.57;;;1.03;;
17151;SDS011;8691;50.828;4.700;2022-09-17T10:43:48;2.90;;;0.70;;
17151;SDS011;8691;50.828;4.700;2022-09-17T10:46:17;4.22;;;1.20;;
17151;SDS011;8691;50.828;4.700;2022-09-17T10:48:50;3.67;;;1.02;;
17151;SDS011;8691;50.828;4.700;2022-09-17T10:51:09;3.45;;;1.05;;
17151;SDS011;8691;50.828;4.700;2022-09-17T10:53:52;3.90;;;1.00;;
17151;SDS011;8691;50.828;4.700;2022-09-17T10:56:09;2.30;;;1.13;;
17151;SDS011;8691;50.828;4.700;2022-09-17T11:01:24;3.33;;;1.00;;
17151;SDS011;8691;50.828;4.700;2022-09-17T11:04:15;2.43;;;0.77;;
17151;SDS011;8691;50.828;4.700;2022-09-17T11:12:28;1.53;;;0.80;;
17151;SDS011;8691;50.828;4.700;2022-09-17T11:36:26;2.80;;;1.17;;
17151;SDS011;8691;50.828;4.700;2022-09-17T11:38:51;6.10;;;1.10;;
17151;SDS011;8691;50.828;4.700;2022-09-17T11:41:19;4.22;;;1.30;;
17151;SDS011;8691;50.828;4.700;2022-09-17T11:46:22;4.37;;;1.40;;
17151;SDS011;8691;50.828;4.700;2022-09-17T11:48:52;2.90;;;0.90;;
17151;SDS011;8691;50.828;4.700;2022-09-17T11:57:04;4.53;;;1.30;;
17151;SDS011;8691;50.828;4.700;2022-09-17T11:59:14;2.95;;;1.08;;
17151;SDS011;8691;50.828;4.700;2022-09-17T12:02:00;2.42;;;0.98;;
17151;SDS011;8691;50.828;4.700;2022-09-17T12:04:47;4.37;;;1.00;;
17151;SDS011;8691;50.828;4.700;2022-09-17T12:12:57;3.55;;;1.20;;
17151;SDS011;8691;50.828;4.700;2022-09-17T12:15:37;4.47;;;1.17;;
17151;SDS011;8691;50.828;4.700;2022-09-17T12:20:51;3.22;;;1.02;;
17151;SDS011;8691;50.828;4.700;2022-09-17T12:23:19;3.10;;;1.00;;
17151;SDS011;8691;50.828;4.700;2022-09-17T12:28:31;3.23;;;1.17;;
17151;SDS011;8691;50.828;4.700;2022-09-17T12:31:03;6.00;;;1.40;;
17151;SDS011;8691;50.828;4.700;2022-09-17T12:33:29;5.67;;;1.77;;
17151;SDS011;8691;50.828;4.700;2022-09-17T12:41:21;6.62;;;1.60;;
17151;SDS011;8691;50.828;4.700;2022-09-17T12:51:59;5.20;;;1.53;;
17151;SDS011;8691;50.828;4.700;2022-09-17T12:59:33;6.97;;;1.60;;
17151;SDS011;8691;50.828;4.700;2022-09-17T13:02:01;7.23;;;1.83;;
17151;SDS011;8691;50.828;4.700;2022-09-17T13:04:39;7.40;;;1.90;;
17151;SDS011;8691;50.828;4.700;2022-09-17T13:13:02;7.00;;;1.80;;
17151;SDS011;8691;50.828;4.700;2022-09-17T13:15:44;8.37;;;2.10;;
17151;SDS011;8691;50.828;4.700;2022-09-17T13:23:14;4.73;;;1.90;;
17151;SDS011;8691;50.828;4.700;2022-09-17T13:25:50;6.20;;;1.80;;
17151;SDS011;8691;50.828;4.700;2022-09-17T13:28:17;7.70;;;2.20;;
17151;SDS011;8691;50.828;4.700;2022-09-17T13:30:59;6.72;;;2.00;;
17151;SDS011;8691;50.828;4.700;2022-09-17T13:36:39;8.07;;;2.00;;
17151;SDS011;8691;50.828;4.700;2022-09-17T13:39:07;6.68;;;1.95;;
17151;SDS011;8691;50.828;4.700;2022-09-17T13:41:34;7.77;;;1.80;;
17151;SDS011;8691;50.828;4.700;2022-09-17T13:44:02;7.77;;;2.00;;
17151;SDS011;8691;50.828;4.700;2022-09-17T13:46:28;7.40;;;1.88;;
17151;SDS011;8691;50.828;4.700;2022-09-17T13:48:56;8.43;;;2.20;;
17151;SDS011;8691;50.828;4.700;2022-09-17T13:54:02;5.17;;;1.80;;
17151;SDS011;8691;50.828;4.700;2022-09-17T13:59:07;8.68;;;2.30;;
17151;SDS011;8691;50.828;4.700;2022-09-17T14:07:30;6.33;;;2.00;;
17151;SDS011;8691;50.828;4.700;2022-09-17T14:09:51;3.77;;;1.60;;
17151;SDS011;8691;50.828;4.700;2022-09-17T14:21:03;3.77;;;1.27;;
17151;SDS011;8691;50.828;4.700;2022-09-17T14:23:34;4.62;;;1.52;;
17151;SDS011;8691;50.828;4.700;2022-09-17T14:26:01;5.40;;;1.50;;
17151;SDS011;8691;50.828;4.700;2022-09-17T14:28:30;5.43;;;1.50;;
17151;SDS011;8691;50.828;4.700;2022-09-17T14:31:00;5.32;;;1.60;;
17151;SDS011;8691;50.828;4.700;2022-09-17T14:33:28;5.43;;;2.20;;
17151;SDS011;8691;50.828;4.700;2022-09-17T14:36:17;5.07;;;1.42;;
17151;SDS011;8691;50.828;4.700;2022-09-17T14:38:23;5.68;;;1.15;;
17151;SDS011;8691;50.828;4.700;2022-09-17T14:41:05;5.30;;;1.53;;
17151;SDS011;8691;50.828;4.700;2022-09-17T14:43:41;4.95;;;1.40;;
17151;SDS011;8691;50.828;4.700;2022-09-17T14:46:08;4.90;;;1.03;;
17151;SDS011;8691;50.828;4.700;2022-09-17T14:48:34;3.03;;;0.90;;
17151;SDS011;8691;50.828;4.700;2022-09-17T14:51:15;3.53;;;1.00;;
17151;SDS011;8691;50.828;4.700;2022-09-17T14:53:46;2.90;;;0.80;;
17151;SDS011;8691;50.828;4.700;2022-09-17T14:56:31;3.00;;;0.85;;
17151;SDS011;8691;50.828;4.700;2022-09-17T14:58:57;3.70;;;0.90;;
17151;SDS011;8691;50.828;4.700;2022-09-17T15:01:25;3.47;;;0.80;;
17151;SDS011;8691;50.828;4.700;2022-09-17T15:06:42;6.03;;;1.17;;
17151;SDS011;8691;50.828;4.700;2022-09-17T15:09:15;3.22;;;1.00;;
17151;SDS011;8691;50.828;4.700;2022-09-17T15:11:41;4.03;;;1.10;;
17151;SDS011;8691;50.828;4.700;2022-09-17T15:14:12;4.50;;;1.00;;
17151;SDS011;8691;50.828;4.700;2022-09-17T15:16:35;3.55;;;1.05;;
17151;SDS011;8691;50.828;4.700;2022-09-17T15:19:03;4.20;;;1.00;;
17151;SDS011;8691;50.828;4.700;2022-09-17T15:23:58;2.60;;;0.90;;
17151;SDS011;8691;50.828;4.700;2022-09-17T15:26:25;4.28;;;0.90;;
17151;SDS011;8691;50.828;4.700;2022-09-17T15:28:50;2.93;;;0.90;;
17151;SDS011;8691;50.828;4.700;2022-09-17T15:31:18;3.65;;;0.90;;
17151;SDS011;8691;50.828;4.700;2022-09-17T15:33:45;4.20;;;1.00;;
17151;SDS011;8691;50.828;4.700;2022-09-17T15:36:21;3.40;;;0.83;;
17151;SDS011;8691;50.828;4.700;2022-09-17T15:38:47;4.83;;;1.10;;
17151;SDS011;8691;50.828;4.700;2022-09-17T15:43:44;3.23;;;1.00;;
17151;SDS011;8691;50.828;4.700;2022-09-17T15:46:29;4.60;;;1.07;;
17151;SDS011;8691;50.828;4.700;2022-09-17T15:49:02;3.47;;;1.12;;
17151;SDS011;8691;50.828;4.700;2022-09-17T15:51:29;5.03;;;1.40;;
17151;SDS011;8691;50.828;4.700;2022-09-17T15:53:56;4.65;;;1.30;;
17151;SDS011;8691;50.828;4.700;2022-09-17T15:56:25;4.97;;;1.10;;
17151;SDS011;8691;50.828;4.700;2022-09-17T15:58:57;3.33;;;1.20;;
17151;SDS011;8691;50.828;4.700;2022-09-17T16:11:19;5.88;;;1.50;;
17151;SDS011;8691;50.828;4.700;2022-09-17T16:13:45;4.77;;;1.33;;
17151;SDS011;8691;50.828;4.700;2022-09-17T16:16:15;4.80;;;1.30;;
17151;SDS011;8691;50.828;4.700;2022-09-17T16:18:38;6.00;;;1.30;;
17151;SDS011;8691;50.828;4.700;2022-09-17T16:21:05;5.03;;;1.52;;
17151;SDS011;8691;50.828;4.700;2022-09-17T16:23:32;6.18;;;1.50;;
17151;SDS011;8691;50.828;4.700;2022-09-17T16:25:59;6.47;;;1.40;;
17151;SDS011;8691;50.828;4.700;2022-09-17T16:28:25;3.45;;;1.35;;
17151;SDS011;8691;50.828;4.700;2022-09-17T16:30:52;5.90;;;1.70;;
17151;SDS011;8691;50.828;4.700;2022-09-17T16:33:19;4.80;;;1.40;;
17151;SDS011;8691;50.828;4.700;2022-09-17T16:35:46;6.85;;;1.60;;
17151;SDS011;8691;50.828;4.700;2022-09-17T16:38:13;5.03;;;1.35;;
17151;SDS011;8691;50.828;4.700;2022-09-17T16:40:40;4.70;;;1.30;;
17151;SDS011;8691;50.828;4.700;2022-09-17T16:43:06;4.75;;;1.60;;
17151;SDS011;8691;50.828;4.700;2022-09-17T16:45:34;5.03;;;1.30;;
17151;SDS011;8691;50.828;4.700;2022-09-17T16:48:02;3.62;;;1.30;;
17151;SDS011;8691;50.828;4.700;2022-09-17T16:50:29;4.30;;;1.33;;
17151;SDS011;8691;50.828;4.700;2022-09-17T16:52:56;5.33;;;1.40;;
17151;SDS011;8691;50.828;4.700;2022-09-17T16:55:22;5.97;;;1.20;;
17151;SDS011;8691;50.828;4.700;2022-09-17T16:57:50;5.70;;;1.40;;
17151;SDS011;8691;50.828;4.700;2022-09-17T17:00:18;5.80;;;1.40;;
17151;SDS011;8691;50.828;4.700;2022-09-17T17:02:49;5.27;;;1.40;;
17151;SDS011;8691;50.828;4.700;2022-09-17T17:05:11;5.72;;;1.50;;
17151;SDS011;8691;50.828;4.700;2022-09-17T17:07:39;5.25;;;1.48;;
17151;SDS011;8691;50.828;4.700;2022-09-17T17:10:06;4.63;;;1.43;;
17151;SDS011;8691;50.828;4.700;2022-09-17T17:12:33;4.27;;;1.57;;
17151;SDS011;8691;50.828;4.700;2022-09-17T17:15:00;4.07;;;1.37;;
17151;SDS011;8691;50.828;4.700;2022-09-17T17:17:27;5.18;;;1.70;;
17151;SDS011;8691;50.828;4.700;2022-09-17T17:19:54;5.50;;;1.50;;
17151;SDS011;8691;50.828;4.700;2022-09-17T17:22:21;6.43;;;1.73;;
17151;SDS011;8691;50.828;4.700;2022-09-17T17:24:47;4.37;;;1.87;;
17151;SDS011;8691;50.828;4.700;2022-09-17T17:27:15;3.78;;;1.90;;
17151;SDS011;8691;50.828;4.700;2022-09-17T17:29:41;5.87;;;2.07;;
17151;SDS011;8691;50.828;4.700;2022-09-17T17:32:08;5.57;;;1.80;;
17151;SDS011;8691;50.828;4.700;2022-09-17T17:34:36;5.80;;;1.98;;
17151;SDS011;8691;50.828;4.700;2022-09-17T17:37:04;6.47;;;2.00;;
17151;SDS011;8691;50.828;4.700;2022-09-17T17:39:31;8.10;;;2.30;;
17151;SDS011;8691;50.828;4.700;2022-09-17T17:41:58;4.55;;;2.10;;
17151;SDS011;8691;50.828;4.700;2022-09-17T17:44:25;6.10;;;2.10;;
17151;SDS011;8691;50.828;4.700;2022-09-17T17:46:52;6.18;;;2.20;;
17151;SDS011;8691;50.828;4.700;2022-09-17T17:49:18;6.53;;;2.65;;
17151;SDS011;8691;50.828;4.700;2022-09-17T17:51:46;6.00;;;2.20;;
17151;SDS011;8691;50.828;4.700;2022-09-17T17:54:12;5.88;;;2.28;;
17151;SDS011;8691;50.828;4.700;2022-09-17T17:56:39;4.63;;;2.33;;
17151;SDS011;8691;50.828;4.700;2022-09-17T17:59:05;6.57;;;2.07;;
17151;SDS011;8691;50.828;4.700;2022-09-17T18:01:32;6.22;;;2.38;;
17151;SDS011;8691;50.828;4.700;2022-09-17T18:04:00;6.50;;;2.47;;
17151;SDS011;8691;50.828;4.700;2022-09-17T18:06:26;6.72;;;2.00;;
17151;SDS011;8691;50.828;4.700;2022-09-17T18:08:53;6.30;;;2.22;;
17151;SDS011;8691;50.828;4.700;2022-09-17T18:11:21;5.93;;;2.45;;
17151;SDS011;8691;50.828;4.700;2022-09-17T18:13:51;6.25;;;2.70;;
17151;SDS011;8691;50.828;4.700;2022-09-17T18:16:18;7.63;;;3.30;;
17151;SDS011;8691;50.828;4.700;2022-09-17T18:18:45;6.28;;;2.85;;
17151;SDS011;8691;50.828;4.700;2022-09-17T18:21:13;6.47;;;2.80;;